sensor_id;sensor_type;location;lat;lon;timestamp;temperature;humidity
19365;DHT22;9818;48.382;10.850;2023-05-29T00:01:24;16.10;74.50
19365;DHT22;9818;48.382;10.850;2023-05-29T00:03:56;16.10;74.20
19365;DHT22;9818;48.382;10.850;2023-05-29T00:06:24;16.10;75.20
19365;DHT22;9818;48.382;10.850;2023-05-29T00:08:53;16.00;75.00
19365;DHT22;9818;48.382;10.850;2023-05-29T00:11:22;16.10;75.60
19365;DHT22;9818;48.382;10.850;2023-05-29T00:13:51;16.10;74.70
19365;DHT22;9818;48.382;10.850;2023-05-29T00:16:20;16.10;75.00
19365;DHT22;9818;48.382;10.850;2023-05-29T00:18:51;16.10;73.00
19365;DHT22;9818;48.382;10.850;2023-05-29T00:21:22;16.00;74.70
19365;DHT22;9818;48.382;10.850;2023-05-29T00:23:50;16.10;72.20
19365;DHT22;9818;48.382;10.850;2023-05-29T00:26:19;16.00;73.40
19365;DHT22;9818;48.382;10.850;2023-05-29T00:28:48;16.10;73.40
19365;DHT22;9818;48.382;10.850;2023-05-29T00:31:16;16.10;70.80
19365;DHT22;9818;48.382;10.850;2023-05-29T00:33:45;16.10;74.10
19365;DHT22;9818;48.382;10.850;2023-05-29T00:36:14;16.00;73.50
19365;DHT22;9818;48.382;10.850;2023-05-29T00:38:46;16.10;74.60
19365;DHT22;9818;48.382;10.850;2023-05-29T00:41:15;16.10;75.10
19365;DHT22;9818;48.382;10.850;2023-05-29T00:43:44;16.10;74.90
19365;DHT22;9818;48.382;10.850;2023-05-29T00:46:14;16.00;78.20
19365;DHT22;9818;48.382;10.850;2023-05-29T00:48:46;16.10;81.00
19365;DHT22;9818;48.382;10.850;2023-05-29T00:51:15;16.10;80.90
19365;DHT22;9818;48.382;10.850;2023-05-29T00:53:48;16.10;80.40
19365;DHT22;9818;48.382;10.850;2023-05-29T00:56:19;16.10;82.20
19365;DHT22;9818;48.382;10.850;2023-05-29T00:58:50;16.10;84.70
19365;DHT22;9818;48.382;10.850;2023-05-29T01:01:19;16.10;86.20
19365;DHT22;9818;48.382;10.850;2023-05-29T01:03:50;16.10;84.90
19365;DHT22;9818;48.382;10.850;2023-05-29T01:06:21;16.10;82.70
19365;DHT22;9818;48.382;10.850;2023-05-29T01:08:52;16.10;81.10
19365;DHT22;9818;48.382;10.850;2023-05-29T01:11:27;16.10;81.30
19365;DHT22;9818;48.382;10.850;2023-05-29T01:14:02;16.10;80.80
19365;DHT22;9818;48.382;10.850;2023-05-29T01:16:38;16.10;82.40
19365;DHT22;9818;48.382;10.850;2023-05-29T01:19:17;16.10;83.40
19365;DHT22;9818;48.382;10.850;2023-05-29T01:21:58;16.10;82.30
19365;DHT22;9818;48.382;10.850;2023-05-29T01:24:38;16.10;81.90
19365;DHT22;9818;48.382;10.850;2023-05-29T01:27:12;16.10;83.50
19365;DHT22;9818;48.382;10.850;2023-05-29T01:29:46;16.00;84.60
19365;DHT22;9818;48.382;10.850;2023-05-29T01:32:15;16.10;83.90
19365;DHT22;9818;48.382;10.850;2023-05-29T01:34:44;16.10;83.80
19365;DHT22;9818;48.382;10.850;2023-05-29T01:37:12;16.10;81.50
19365;DHT22;9818;48.382;10.850;2023-05-29T01:39:41;16.10;81.10
19365;DHT22;9818;48.382;10.850;2023-05-29T01:42:12;16.10;79.90
19365;DHT22;9818;48.382;10.850;2023-05-29T01:44:42;16.10;80.20
19365;DHT22;9818;48.382;10.850;2023-05-29T01:47:12;16.10;79.20
19365;DHT22;9818;48.382;10.850;2023-05-29T01:49:41;16.10;75.20
19365;DHT22;9818;48.382;10.850;2023-05-29T01:52:10;16.10;77.60
19365;DHT22;9818;48.382;10.850;2023-05-29T01:54:38;16.10;78.20
19365;DHT22;9818;48.382;10.850;2023-05-29T01:57:07;16.10;79.00
19365;DHT22;9818;48.382;10.850;2023-05-29T01:59:39;16.10;78.10
19365;DHT22;9818;48.382;10.850;2023-05-29T02:02:08;16.10;77.30
19365;DHT22;9818;48.382;10.850;2023-05-29T02:04:37;16.00;76.80
19365;DHT22;9818;48.382;10.850;2023-05-29T02:07:06;16.10;75.30
19365;DHT22;9818;48.382;10.850;2023-05-29T02:09:35;16.10;75.10
19365;DHT22;9818;48.382;10.850;2023-05-29T02:12:04;16.10;75.60
19365;DHT22;9818;48.382;10.850;2023-05-29T02:14:33;16.00;71.00
19365;DHT22;9818;48.382;10.850;2023-05-29T02:17:05;16.00;71.20
19365;DHT22;9818;48.382;10.850;2023-05-29T02:19:34;16.10;76.10
19365;DHT22;9818;48.382;10.850;2023-05-29T02:22:03;16.10;71.60
19365;DHT22;9818;48.382;10.850;2023-05-29T02:24:32;16.00;71.50
19365;DHT22;9818;48.382;10.850;2023-05-29T02:27:01;16.00;70.70
19365;DHT22;9818;48.382;10.850;2023-05-29T02:29:29;16.10;70.80
19365;DHT22;9818;48.382;10.850;2023-05-29T02:31:58;16.10;70.20
19365;DHT22;9818;48.382;10.850;2023-05-29T02:34:29;16.10;69.00
19365;DHT22;9818;48.382;10.850;2023-05-29T02:36:58;16.00;71.90
19365;DHT22;9818;48.382;10.850;2023-05-29T02:39:28;16.00;68.50
19365;DHT22;9818;48.382;10.850;2023-05-29T02:41:56;16.00;69.60
19365;DHT22;9818;48.382;10.850;2023-05-29T02:44:25;16.00;70.70
19365;DHT22;9818;48.382;10.850;2023-05-29T02:46:54;16.00;69.80
19365;DHT22;9818;48.382;10.850;2023-05-29T02:49:22;16.00;71.90
19365;DHT22;9818;48.382;10.850;2023-05-29T02:51:54;16.00;67.80
19365;DHT22;9818;48.382;10.850;2023-05-29T02:54:23;16.00;69.70
19365;DHT22;9818;48.382;10.850;2023-05-29T02:56:51;16.00;70.20
19365;DHT22;9818;48.382;10.850;2023-05-29T02:59:20;16.00;69.00
19365;DHT22;9818;48.382;10.850;2023-05-29T03:01:48;16.00;68.80
19365;DHT22;9818;48.382;10.850;2023-05-29T03:04:18;16.00;70.20
19365;DHT22;9818;48.382;10.850;2023-05-29T03:06:46;16.00;68.50
19365;DHT22;9818;48.382;10.850;2023-05-29T03:09:18;16.00;68.60
19365;DHT22;9818;48.382;10.850;2023-05-29T03:11:46;16.00;67.80
19365;DHT22;9818;48.382;10.850;2023-05-29T03:14:16;16.00;67.70
19365;DHT22;9818;48.382;10.850;2023-05-29T03:16:47;16.00;68.50
19365;DHT22;9818;48.382;10.850;2023-05-29T03:19:16;16.00;65.40
19365;DHT22;9818;48.382;10.850;2023-05-29T03:21:44;16.00;65.00
19365;DHT22;9818;48.382;10.850;2023-05-29T03:24:18;16.00;67.10
19365;DHT22;9818;48.382;10.850;2023-05-29T03:26:49;16.00;68.10
19365;DHT22;9818;48.382;10.850;2023-05-29T03:29:18;16.00;67.30
19365;DHT22;9818;48.382;10.850;2023-05-29T03:31:46;16.00;67.80
19365;DHT22;9818;48.382;10.850;2023-05-29T03:34:15;16.00;69.00
19365;DHT22;9818;48.382;10.850;2023-05-29T03:36:44;16.00;65.20
19365;DHT22;9818;48.382;10.850;2023-05-29T03:39:12;16.00;64.60
19365;DHT22;9818;48.382;10.850;2023-05-29T03:41:47;16.00;66.90
19365;DHT22;9818;48.382;10.850;2023-05-29T03:44:15;16.00;65.80
19365;DHT22;9818;48.382;10.850;2023-05-29T03:46:44;16.00;65.70
19365;DHT22;9818;48.382;10.850;2023-05-29T03:49:12;16.00;65.50
19365;DHT22;9818;48.382;10.850;2023-05-29T03:51:41;16.00;65.90
19365;DHT22;9818;48.382;10.850;2023-05-29T03:54:10;16.00;62.00
19365;DHT22;9818;48.382;10.850;2023-05-29T03:56:38;16.00;65.10
19365;DHT22;9818;48.382;10.850;2023-05-29T03:59:10;16.00;65.40
19365;DHT22;9818;48.382;10.850;2023-05-29T04:01:39;16.00;64.80
19365;DHT22;9818;48.382;10.850;2023-05-29T04:04:08;16.00;62.60
19365;DHT22;9818;48.382;10.850;2023-05-29T04:06:36;16.00;63.50
19365;DHT22;9818;48.382;10.850;2023-05-29T04:09:06;16.00;61.30
19365;DHT22;9818;48.382;10.850;2023-05-29T04:11:35;16.00;62.20
19365;DHT22;9818;48.382;10.850;2023-05-29T04:14:04;16.00;64.30
19365;DHT22;9818;48.382;10.850;2023-05-29T04:16:35;16.00;62.10
19365;DHT22;9818;48.382;10.850;2023-05-29T04:19:04;16.00;60.70
19365;DHT22;9818;48.382;10.850;2023-05-29T04:21:33;16.00;64.50
19365;DHT22;9818;48.382;10.850;2023-05-29T04:24:01;16.00;62.30
19365;DHT22;9818;48.382;10.850;2023-05-29T04:26:30;16.00;61.80
19365;DHT22;9818;48.382;10.850;2023-05-29T04:28:59;16.00;60.20
19365;DHT22;9818;48.382;10.850;2023-05-29T04:31:27;16.00;63.70
19365;DHT22;9818;48.382;10.850;2023-05-29T04:33:59;16.00;62.00
19365;DHT22;9818;48.382;10.850;2023-05-29T04:36:30;16.00;62.30
19365;DHT22;9818;48.382;10.850;2023-05-29T04:38:59;16.00;63.10
19365;DHT22;9818;48.382;10.850;2023-05-29T04:41:28;16.00;62.80
19365;DHT22;9818;48.382;10.850;2023-05-29T04:43:57;16.00;61.60
19365;DHT22;9818;48.382;10.850;2023-05-29T04:46:26;16.00;63.80
19365;DHT22;9818;48.382;10.850;2023-05-29T04:48:55;16.00;63.90
19365;DHT22;9818;48.382;10.850;2023-05-29T04:51:26;16.00;61.30
19365;DHT22;9818;48.382;10.850;2023-05-29T04:53:55;16.00;63.20
19365;DHT22;9818;48.382;10.850;2023-05-29T04:56:24;16.00;60.80
19365;DHT22;9818;48.382;10.850;2023-05-29T04:58:53;16.00;62.00
19365;DHT22;9818;48.382;10.850;2023-05-29T05:01:24;16.00;63.50
19365;DHT22;9818;48.382;10.850;2023-05-29T05:03:52;16.00;61.40
19365;DHT22;9818;48.382;10.850;2023-05-29T05:06:21;16.00;63.10
19365;DHT22;9818;48.382;10.850;2023-05-29T05:08:53;16.00;65.40
19365;DHT22;9818;48.382;10.850;2023-05-29T05:11:23;16.00;62.80
19365;DHT22;9818;48.382;10.850;2023-05-29T05:13:51;16.00;63.00
19365;DHT22;9818;48.382;10.850;2023-05-29T05:16:20;16.00;65.60
19365;DHT22;9818;48.382;10.850;2023-05-29T05:18:49;16.00;65.20
19365;DHT22;9818;48.382;10.850;2023-05-29T05:21:17;16.00;66.50
19365;DHT22;9818;48.382;10.850;2023-05-29T05:23:46;16.00;69.00
19365;DHT22;9818;48.382;10.850;2023-05-29T05:26:17;16.00;70.00
19365;DHT22;9818;48.382;10.850;2023-05-29T05:28:46;16.00;68.60
19365;DHT22;9818;48.382;10.850;2023-05-29T05:31:15;16.00;70.50
19365;DHT22;9818;48.382;10.850;2023-05-29T05:33:43;16.00;71.30
19365;DHT22;9818;48.382;10.850;2023-05-29T05:36:12;16.00;71.70
19365;DHT22;9818;48.382;10.850;2023-05-29T05:38:40;16.00;73.00
19365;DHT22;9818;48.382;10.850;2023-05-29T05:41:09;16.00;73.80
19365;DHT22;9818;48.382;10.850;2023-05-29T05:43:40;16.00;74.40
19365;DHT22;9818;48.382;10.850;2023-05-29T05:46:09;16.00;74.60
19365;DHT22;9818;48.382;10.850;2023-05-29T05:48:40;16.00;74.40
19365;DHT22;9818;48.382;10.850;2023-05-29T05:51:08;16.00;74.60
19365;DHT22;9818;48.382;10.850;2023-05-29T05:53:37;16.00;75.90
19365;DHT22;9818;48.382;10.850;2023-05-29T05:56:06;16.00;76.30
19365;DHT22;9818;48.382;10.850;2023-05-29T05:58:35;16.00;76.20
19365;DHT22;9818;48.382;10.850;2023-05-29T06:01:06;16.00;76.90
19365;DHT22;9818;48.382;10.850;2023-05-29T06:03:36;16.00;77.00
19365;DHT22;9818;48.382;10.850;2023-05-29T06:06:06;16.00;77.80
19365;DHT22;9818;48.382;10.850;2023-05-29T06:08:35;16.00;79.80
19365;DHT22;9818;48.382;10.850;2023-05-29T06:11:06;16.00;79.90
19365;DHT22;9818;48.382;10.850;2023-05-29T06:13:34;16.00;80.00
19365;DHT22;9818;48.382;10.850;2023-05-29T06:16:06;16.10;82.60
19365;DHT22;9818;48.382;10.850;2023-05-29T06:18:35;16.00;81.30
19365;DHT22;9818;48.382;10.850;2023-05-29T06:21:04;16.00;82.30
19365;DHT22;9818;48.382;10.850;2023-05-29T06:23:33;16.10;82.60
19365;DHT22;9818;48.382;10.850;2023-05-29T06:26:02;16.00;81.00
19365;DHT22;9818;48.382;10.850;2023-05-29T06:28:31;16.00;81.30
19365;DHT22;9818;48.382;10.850;2023-05-29T06:31:00;16.00;81.50
19365;DHT22;9818;48.382;10.850;2023-05-29T06:33:31;16.00;80.10
19365;DHT22;9818;48.382;10.850;2023-05-29T06:36:00;16.00;81.70
19365;DHT22;9818;48.382;10.850;2023-05-29T06:38:28;16.10;82.10
19365;DHT22;9818;48.382;10.850;2023-05-29T06:40:57;16.00;83.30
19365;DHT22;9818;48.382;10.850;2023-05-29T06:43:26;16.00;82.80
19365;DHT22;9818;48.382;10.850;2023-05-29T06:45:55;16.10;80.90
19365;DHT22;9818;48.382;10.850;2023-05-29T06:48:24;16.10;81.70
19365;DHT22;9818;48.382;10.850;2023-05-29T06:50:55;16.10;82.90
19365;DHT22;9818;48.382;10.850;2023-05-29T06:53:24;16.00;83.40
19365;DHT22;9818;48.382;10.850;2023-05-29T06:55:52;16.10;84.90
19365;DHT22;9818;48.382;10.850;2023-05-29T06:58:21;16.10;84.00
19365;DHT22;9818;48.382;10.850;2023-05-29T07:00:50;16.10;84.50
19365;DHT22;9818;48.382;10.850;2023-05-29T07:03:18;16.10;85.90
19365;DHT22;9818;48.382;10.850;2023-05-29T07:05:47;16.10;85.90
19365;DHT22;9818;48.382;10.850;2023-05-29T07:08:19;16.10;86.30
19365;DHT22;9818;48.382;10.850;2023-05-29T07:10:47;16.10;86.60
19365;DHT22;9818;48.382;10.850;2023-05-29T07:13:17;16.10;87.20
19365;DHT22;9818;48.382;10.850;2023-05-29T07:15:47;16.10;87.00
19365;DHT22;9818;48.382;10.850;2023-05-29T07:18:16;16.00;86.90
19365;DHT22;9818;48.382;10.850;2023-05-29T07:20:45;16.10;87.20
19365;DHT22;9818;48.382;10.850;2023-05-29T07:23:13;16.10;87.10
19365;DHT22;9818;48.382;10.850;2023-05-29T07:25:44;16.10;86.80
19365;DHT22;9818;48.382;10.850;2023-05-29T07:28:13;16.10;85.50
19365;DHT22;9818;48.382;10.850;2023-05-29T07:30:42;16.10;84.80
19365;DHT22;9818;48.382;10.850;2023-05-29T07:33:10;16.10;84.60
19365;DHT22;9818;48.382;10.850;2023-05-29T07:35:39;16.10;85.20
19365;DHT22;9818;48.382;10.850;2023-05-29T07:38:08;16.10;85.90
19365;DHT22;9818;48.382;10.850;2023-05-29T07:40:36;16.10;86.30
19365;DHT22;9818;48.382;10.850;2023-05-29T07:43:08;16.10;86.70
19365;DHT22;9818;48.382;10.850;2023-05-29T07:45:36;16.10;87.10
19365;DHT22;9818;48.382;10.850;2023-05-29T07:48:05;16.10;87.20
19365;DHT22;9818;48.382;10.850;2023-05-29T07:50:34;16.10;86.70
19365;DHT22;9818;48.382;10.850;2023-05-29T07:53:02;16.10;86.50
19365;DHT22;9818;48.382;10.850;2023-05-29T07:55:31;16.10;86.10
19365;DHT22;9818;48.382;10.850;2023-05-29T07:58:00;16.10;86.10
19365;DHT22;9818;48.382;10.850;2023-05-29T08:00:31;16.10;85.90
19365;DHT22;9818;48.382;10.850;2023-05-29T08:03:00;16.10;85.60
19365;DHT22;9818;48.382;10.850;2023-05-29T08:05:28;16.10;85.50
19365;DHT22;9818;48.382;10.850;2023-05-29T08:07:57;16.10;85.30
19365;DHT22;9818;48.382;10.850;2023-05-29T08:10:26;16.10;85.20
19365;DHT22;9818;48.382;10.850;2023-05-29T08:12:54;16.10;85.50
19365;DHT22;9818;48.382;10.850;2023-05-29T08:15:23;16.10;86.30
19365;DHT22;9818;48.382;10.850;2023-05-29T08:17:54;16.10;85.60
19365;DHT22;9818;48.382;10.850;2023-05-29T08:20:23;16.10;86.20
19365;DHT22;9818;48.382;10.850;2023-05-29T08:22:52;16.10;86.00
19365;DHT22;9818;48.382;10.850;2023-05-29T08:25:20;16.10;86.70
19365;DHT22;9818;48.382;10.850;2023-05-29T08:27:49;16.10;87.10
19365;DHT22;9818;48.382;10.850;2023-05-29T08:30:18;16.10;86.90
19365;DHT22;9818;48.382;10.850;2023-05-29T08:32:47;16.10;86.80
19365;DHT22;9818;48.382;10.850;2023-05-29T08:35:18;16.10;86.80
19365;DHT22;9818;48.382;10.850;2023-05-29T08:37:48;16.10;86.70
19365;DHT22;9818;48.382;10.850;2023-05-29T08:40:17;16.10;86.80
19365;DHT22;9818;48.382;10.850;2023-05-29T08:42:50;16.10;87.00
19365;DHT22;9818;48.382;10.850;2023-05-29T08:45:22;16.10;86.80
19365;DHT22;9818;48.382;10.850;2023-05-29T08:47:52;16.10;86.90
19365;DHT22;9818;48.382;10.850;2023-05-29T08:50:23;16.10;86.40
19365;DHT22;9818;48.382;10.850;2023-05-29T08:52:52;16.10;86.80
19365;DHT22;9818;48.382;10.850;2023-05-29T08:55:21;16.10;86.50
19365;DHT22;9818;48.382;10.850;2023-05-29T08:57:50;16.10;86.30
19365;DHT22;9818;48.382;10.850;2023-05-29T09:00:19;16.10;85.90
19365;DHT22;9818;48.382;10.850;2023-05-29T09:02:54;16.10;85.50
19365;DHT22;9818;48.382;10.850;2023-05-29T09:05:27;16.10;84.80
19365;DHT22;9818;48.382;10.850;2023-05-29T09:07:56;16.10;84.80
19365;DHT22;9818;48.382;10.850;2023-05-29T09:10:25;16.10;84.40
19365;DHT22;9818;48.382;10.850;2023-05-29T09:12:53;16.10;84.30
19365;DHT22;9818;48.382;10.850;2023-05-29T09:15:23;16.10;83.90
19365;DHT22;9818;48.382;10.850;2023-05-29T09:17:52;16.10;83.40
19365;DHT22;9818;48.382;10.850;2023-05-29T09:20:22;16.10;82.80
19365;DHT22;9818;48.382;10.850;2023-05-29T09:22:58;16.10;82.50
19365;DHT22;9818;48.382;10.850;2023-05-29T09:25:28;16.10;83.30
19365;DHT22;9818;48.382;10.850;2023-05-29T09:27:59;16.10;82.80
19365;DHT22;9818;48.382;10.850;2023-05-29T09:30:35;16.10;82.80
19365;DHT22;9818;48.382;10.850;2023-05-29T09:33:05;16.10;82.40
19365;DHT22;9818;48.382;10.850;2023-05-29T09:35:35;16.10;82.60
19365;DHT22;9818;48.382;10.850;2023-05-29T09:38:06;16.10;83.10
19365;DHT22;9818;48.382;10.850;2023-05-29T09:40:37;16.10;83.10
19365;DHT22;9818;48.382;10.850;2023-05-29T09:43:11;16.10;83.60
19365;DHT22;9818;48.382;10.850;2023-05-29T09:45:44;16.10;83.40
19365;DHT22;9818;48.382;10.850;2023-05-29T09:48:14;16.10;82.80
19365;DHT22;9818;48.382;10.850;2023-05-29T09:50:44;16.10;83.50
19365;DHT22;9818;48.382;10.850;2023-05-29T09:53:20;16.10;82.90
19365;DHT22;9818;48.382;10.850;2023-05-29T09:55:50;16.10;82.40
19365;DHT22;9818;48.382;10.850;2023-05-29T09:58:20;16.20;81.60
19365;DHT22;9818;48.382;10.850;2023-05-29T10:00:50;16.10;63.80
19365;DHT22;9818;48.382;10.850;2023-05-29T10:03:19;16.10;63.70
19365;DHT22;9818;48.382;10.850;2023-05-29T10:05:50;16.10;63.60
19365;DHT22;9818;48.382;10.850;2023-05-29T10:08:22;16.10;63.70
19365;DHT22;9818;48.382;10.850;2023-05-29T10:10:58;16.20;62.00
19365;DHT22;9818;48.382;10.850;2023-05-29T10:13:28;16.20;59.30
19365;DHT22;9818;48.382;10.850;2023-05-29T10:16:01;16.30;55.90
19365;DHT22;9818;48.382;10.850;2023-05-29T10:18:34;16.30;62.10
19365;DHT22;9818;48.382;10.850;2023-05-29T10:21:07;16.30;59.00
19365;DHT22;9818;48.382;10.850;2023-05-29T10:23:42;16.40;63.10
19365;DHT22;9818;48.382;10.850;2023-05-29T10:26:15;16.40;61.30
19365;DHT22;9818;48.382;10.850;2023-05-29T10:28:46;16.30;63.60
19365;DHT22;9818;48.382;10.850;2023-05-29T10:31:19;16.30;65.70
19365;DHT22;9818;48.382;10.850;2023-05-29T10:34:01;16.30;65.40
19365;DHT22;9818;48.382;10.850;2023-05-29T10:36:34;16.30;61.80
19365;DHT22;9818;48.382;10.850;2023-05-29T10:39:06;16.30;62.30
19365;DHT22;9818;48.382;10.850;2023-05-29T10:41:36;16.40;67.50
19365;DHT22;9818;48.382;10.850;2023-05-29T10:44:38;16.40;64.90
19365;DHT22;9818;48.382;10.850;2023-05-29T10:47:07;16.30;64.90
19365;DHT22;9818;48.382;10.850;2023-05-29T10:49:38;16.30;68.30
19365;DHT22;9818;48.382;10.850;2023-05-29T10:52:06;16.30;70.20
19365;DHT22;9818;48.382;10.850;2023-05-29T10:54:53;16.30;71.50
19365;DHT22;9818;48.382;10.850;2023-05-29T10:57:22;16.30;71.10
19365;DHT22;9818;48.382;10.850;2023-05-29T11:00:15;16.30;66.70
19365;DHT22;9818;48.382;10.850;2023-05-29T11:02:46;16.30;67.00
19365;DHT22;9818;48.382;10.850;2023-05-29T11:05:24;16.40;69.00
19365;DHT22;9818;48.382;10.850;2023-05-29T11:07:55;16.40;75.70
19365;DHT22;9818;48.382;10.850;2023-05-29T11:10:55;16.40;71.30
19365;DHT22;9818;48.382;10.850;2023-05-29T11:13:25;16.30;69.60
19365;DHT22;9818;48.382;10.850;2023-05-29T11:16:35;16.30;78.80
19365;DHT22;9818;48.382;10.850;2023-05-29T11:19:06;16.30;76.10
19365;DHT22;9818;48.382;10.850;2023-05-29T11:21:46;16.30;74.70
19365;DHT22;9818;48.382;10.850;2023-05-29T11:24:21;16.30;75.30
19365;DHT22;9818;48.382;10.850;2023-05-29T11:26:56;16.30;77.50
19365;DHT22;9818;48.382;10.850;2023-05-29T11:29:31;16.30;79.80
19365;DHT22;9818;48.382;10.850;2023-05-29T11:32:02;16.30;80.10
19365;DHT22;9818;48.382;10.850;2023-05-29T11:34:33;16.30;78.00
19365;DHT22;9818;48.382;10.850;2023-05-29T11:37:03;16.30;76.80
19365;DHT22;9818;48.382;10.850;2023-05-29T11:39:35;16.20;74.80
19365;DHT22;9818;48.382;10.850;2023-05-29T11:42:07;16.30;62.70
19365;DHT22;9818;48.382;10.850;2023-05-29T11:44:36;16.30;63.00
19365;DHT22;9818;48.382;10.850;2023-05-29T11:47:06;16.30;67.40
19365;DHT22;9818;48.382;10.850;2023-05-29T11:49:36;16.30;68.90
19365;DHT22;9818;48.382;10.850;2023-05-29T11:52:08;16.20;67.70
19365;DHT22;9818;48.382;10.850;2023-05-29T11:54:37;16.30;66.20
19365;DHT22;9818;48.382;10.850;2023-05-29T11:57:17;16.20;64.10
19365;DHT22;9818;48.382;10.850;2023-05-29T11:59:46;16.30;62.60
19365;DHT22;9818;48.382;10.850;2023-05-29T12:02:15;16.20;61.90
19365;DHT22;9818;48.382;10.850;2023-05-29T12:04:59;16.30;60.50
19365;DHT22;9818;48.382;10.850;2023-05-29T12:07:28;16.20;59.70
19365;DHT22;9818;48.382;10.850;2023-05-29T12:09:57;16.20;60.20
19365;DHT22;9818;48.382;10.850;2023-05-29T12:12:28;16.20;58.70
19365;DHT22;9818;48.382;10.850;2023-05-29T12:14:57;16.30;58.40
19365;DHT22;9818;48.382;10.850;2023-05-29T12:17:27;16.20;57.50
19365;DHT22;9818;48.382;10.850;2023-05-29T12:19:56;16.20;57.80
19365;DHT22;9818;48.382;10.850;2023-05-29T12:22:32;16.20;58.10
19365;DHT22;9818;48.382;10.850;2023-05-29T12:25:10;16.20;56.70
19365;DHT22;9818;48.382;10.850;2023-05-29T12:27:43;16.20;57.30
19365;DHT22;9818;48.382;10.850;2023-05-29T12:30:13;16.20;56.70
19365;DHT22;9818;48.382;10.850;2023-05-29T12:32:44;16.20;56.40
19365;DHT22;9818;48.382;10.850;2023-05-29T12:35:15;16.20;55.50
19365;DHT22;9818;48.382;10.850;2023-05-29T12:37:48;16.20;57.40
19365;DHT22;9818;48.382;10.850;2023-05-29T12:40:18;16.20;56.00
19365;DHT22;9818;48.382;10.850;2023-05-29T12:42:55;16.20;56.10
19365;DHT22;9818;48.382;10.850;2023-05-29T12:45:26;16.20;54.40
19365;DHT22;9818;48.382;10.850;2023-05-29T12:47:56;16.20;54.90
19365;DHT22;9818;48.382;10.850;2023-05-29T12:50:28;16.20;53.50
19365;DHT22;9818;48.382;10.850;2023-05-29T12:52:58;16.20;53.20
19365;DHT22;9818;48.382;10.850;2023-05-29T12:55:28;16.20;52.30
19365;DHT22;9818;48.382;10.850;2023-05-29T12:58:01;16.20;52.30
19365;DHT22;9818;48.382;10.850;2023-05-29T13:00:30;16.20;50.40
19365;DHT22;9818;48.382;10.850;2023-05-29T13:02:59;16.20;50.90
19365;DHT22;9818;48.382;10.850;2023-05-29T13:05:28;16.20;50.00
19365;DHT22;9818;48.382;10.850;2023-05-29T13:07:57;16.20;50.10
19365;DHT22;9818;48.382;10.850;2023-05-29T13:10:26;16.30;46.30
19365;DHT22;9818;48.382;10.850;2023-05-29T13:12:55;16.30;45.60
19365;DHT22;9818;48.382;10.850;2023-05-29T13:15:27;16.30;47.40
19365;DHT22;9818;48.382;10.850;2023-05-29T13:17:56;16.30;52.10
19365;DHT22;9818;48.382;10.850;2023-05-29T13:20:25;16.30;52.00
19365;DHT22;9818;48.382;10.850;2023-05-29T13:22:54;16.30;50.20
19365;DHT22;9818;48.382;10.850;2023-05-29T13:25:22;16.30;50.30
19365;DHT22;9818;48.382;10.850;2023-05-29T13:27:52;16.20;50.60
19365;DHT22;9818;48.382;10.850;2023-05-29T13:30:21;16.30;52.10
19365;DHT22;9818;48.382;10.850;2023-05-29T13:32:53;16.30;52.50
19365;DHT22;9818;48.382;10.850;2023-05-29T13:35:22;16.20;52.70
19365;DHT22;9818;48.382;10.850;2023-05-29T13:37:50;16.20;51.30
19365;DHT22;9818;48.382;10.850;2023-05-29T13:40:19;16.20;51.50
19365;DHT22;9818;48.382;10.850;2023-05-29T13:42:48;16.30;49.10
19365;DHT22;9818;48.382;10.850;2023-05-29T13:45:16;16.20;47.10
19365;DHT22;9818;48.382;10.850;2023-05-29T13:47:45;16.20;46.50
19365;DHT22;9818;48.382;10.850;2023-05-29T13:50:16;16.20;46.10
19365;DHT22;9818;48.382;10.850;2023-05-29T13:52:45;16.20;47.20
19365;DHT22;9818;48.382;10.850;2023-05-29T13:55:14;16.30;47.10
19365;DHT22;9818;48.382;10.850;2023-05-29T13:57:43;16.20;48.30
19365;DHT22;9818;48.382;10.850;2023-05-29T14:00:12;16.30;47.00
19365;DHT22;9818;48.382;10.850;2023-05-29T14:02:41;16.20;47.60
19365;DHT22;9818;48.382;10.850;2023-05-29T14:05:10;16.20;48.00
19365;DHT22;9818;48.382;10.850;2023-05-29T14:07:41;16.30;46.60
19365;DHT22;9818;48.382;10.850;2023-05-29T14:10:10;16.20;46.60
19365;DHT22;9818;48.382;10.850;2023-05-29T14:12:39;16.20;46.60
19365;DHT22;9818;48.382;10.850;2023-05-29T14:15:09;16.20;46.80
19365;DHT22;9818;48.382;10.850;2023-05-29T14:17:38;16.20;46.20
19365;DHT22;9818;48.382;10.850;2023-05-29T14:20:07;16.20;43.30
19365;DHT22;9818;48.382;10.850;2023-05-29T14:22:37;16.20;42.80
19365;DHT22;9818;48.382;10.850;2023-05-29T14:25:08;16.20;43.40
19365;DHT22;9818;48.382;10.850;2023-05-29T14:27:37;16.20;44.50
19365;DHT22;9818;48.382;10.850;2023-05-29T14:30:08;16.30;44.40
19365;DHT22;9818;48.382;10.850;2023-05-29T14:32:36;16.20;42.10
19365;DHT22;9818;48.382;10.850;2023-05-29T14:35:08;16.20;43.10
19365;DHT22;9818;48.382;10.850;2023-05-29T14:37:37;16.20;43.70
19365;DHT22;9818;48.382;10.850;2023-05-29T14:40:09;16.20;43.70
19365;DHT22;9818;48.382;10.850;2023-05-29T14:42:38;16.20;44.00
19365;DHT22;9818;48.382;10.850;2023-05-29T14:45:07;16.20;44.20
19365;DHT22;9818;48.382;10.850;2023-05-29T14:47:36;16.20;43.70
19365;DHT22;9818;48.382;10.850;2023-05-29T14:50:06;16.20;45.40
19365;DHT22;9818;48.382;10.850;2023-05-29T14:52:35;16.20;44.50
19365;DHT22;9818;48.382;10.850;2023-05-29T14:55:04;16.20;44.40
19365;DHT22;9818;48.382;10.850;2023-05-29T14:57:35;16.20;43.80
19365;DHT22;9818;48.382;10.850;2023-05-29T15:00:07;16.20;44.10
19365;DHT22;9818;48.382;10.850;2023-05-29T15:02:36;16.20;43.30
19365;DHT22;9818;48.382;10.850;2023-05-29T15:05:05;16.20;41.90
19365;DHT22;9818;48.382;10.850;2023-05-29T15:07:35;16.20;40.00
19365;DHT22;9818;48.382;10.850;2023-05-29T15:10:04;16.20;41.80
19365;DHT22;9818;48.382;10.850;2023-05-29T15:12:35;16.20;38.70
19365;DHT22;9818;48.382;10.850;2023-05-29T15:15:05;16.20;38.90
19365;DHT22;9818;48.382;10.850;2023-05-29T15:17:34;16.20;38.00
19365;DHT22;9818;48.382;10.850;2023-05-29T15:20:04;16.20;37.80
19365;DHT22;9818;48.382;10.850;2023-05-29T15:22:33;16.20;36.40
19365;DHT22;9818;48.382;10.850;2023-05-29T15:25:02;16.30;38.10
19365;DHT22;9818;48.382;10.850;2023-05-29T15:27:30;16.20;37.10
19365;DHT22;9818;48.382;10.850;2023-05-29T15:30:11;16.20;36.40
19365;DHT22;9818;48.382;10.850;2023-05-29T15:32:40;16.20;35.50
19365;DHT22;9818;48.382;10.850;2023-05-29T15:35:10;16.20;36.40
19365;DHT22;9818;48.382;10.850;2023-05-29T15:37:39;16.30;38.60
19365;DHT22;9818;48.382;10.850;2023-05-29T15:40:09;16.20;38.40
19365;DHT22;9818;48.382;10.850;2023-05-29T15:42:38;16.20;35.10
19365;DHT22;9818;48.382;10.850;2023-05-29T15:45:10;16.30;34.80
19365;DHT22;9818;48.382;10.850;2023-05-29T15:47:40;16.20;32.60
19365;DHT22;9818;48.382;10.850;2023-05-29T15:50:09;16.20;34.00